createdAt,value
2022-08-07T00:02:40.408Z,0.00
2022-08-07T00:03:56.618Z,0.00
2022-08-07T00:04:24.596Z,0.00
2022-08-07T00:04:48.440Z,0.00
2022-08-07T00:05:19.487Z,0.00
2022-08-07T00:05:50.139Z,0.00
2022-08-07T00:06:29.569Z,0.00
2022-08-07T00:06:54.396Z,0.00
2022-08-07T00:07:27.263Z,0.00
2022-08-07T00:08:00.333Z,0.00
2022-08-07T00:17:02.569Z,0.00
2022-08-07T00:17:14.686Z,0.00
2022-08-07T00:17:44.409Z,0.00
2022-08-07T00:18:19.850Z,0.00
2022-08-07T00:19:05.673Z,0.00
2022-08-07T00:20:01.174Z,0.00
2022-08-07T00:20:29.675Z,0.00
2022-08-07T00:20:49.451Z,0.00
2022-08-07T00:21:55.970Z,0.00
2022-08-07T00:22:35.219Z,0.00
2022-08-07T00:22:58.867Z,0.00
2022-08-07T00:23:25.604Z,0.00
2022-08-07T00:23:56.659Z,0.00
2022-08-07T00:24:31.671Z,0.00
2022-08-07T00:24:58.135Z,0.00
2022-08-07T00:25:28.286Z,0.00
2022-08-07T00:26:06.837Z,0.00
2022-08-07T00:26:49.268Z,0.00
2022-08-07T00:27:19.283Z,0.00
2022-08-07T00:27:51.876Z,0.00
2022-08-07T00:28:05.416Z,0.00
2022-08-07T00:28:41.807Z,0.00
2022-08-07T00:29:23.294Z,0.00
2022-08-07T00:29:41.481Z,0.00
2022-08-07T00:30:26.528Z,0.00
2022-08-07T00:31:37.177Z,0.00
2022-08-07T00:32:15.559Z,0.00
2022-08-07T00:32:47.796Z,0.00
2022-08-07T00:33:15.831Z,0.00
2022-08-07T00:33:47.391Z,0.00
2022-08-07T00:34:16.359Z,0.00
2022-08-07T00:34:46.919Z,0.00
2022-08-07T00:35:18.938Z,0.00
2022-08-07T00:35:51.116Z,0.00
2022-08-07T00:36:22.644Z,0.00
2022-08-07T00:36:50.609Z,0.00
2022-08-07T00:37:29.293Z,0.00
2022-08-07T00:37:54.948Z,0.00
2022-08-07T00:38:31.446Z,0.00
2022-08-07T00:38:55.887Z,0.00
2022-08-07T00:39:26.780Z,0.00
2022-08-07T00:39:57.127Z,0.00
2022-08-07T00:40:40.109Z,0.00
2022-08-07T00:40:58.446Z,0.00
2022-08-07T00:41:29.940Z,0.00
2022-08-07T00:42:02.384Z,0.00
2022-08-07T00:42:32.233Z,0.00
2022-08-07T00:43:04.374Z,0.00
2022-08-07T00:44:01.924Z,0.00
2022-08-07T00:44:41.255Z,0.00
2022-08-07T00:45:16.390Z,0.00
2022-08-07T00:45:37.601Z,0.00
2022-08-07T00:46:08.497Z,0.00
2022-08-07T00:46:39.481Z,0.00
2022-08-07T00:48:09.820Z,0.00
2022-08-07T00:48:16.917Z,0.00
2022-08-07T00:48:45.014Z,0.00
2022-08-07T00:50:16.746Z,0.00
2022-08-07T00:50:51.292Z,0.00
2022-08-07T00:51:18.326Z,0.00
2022-08-07T00:51:57.037Z,0.00
2022-08-07T00:52:20.900Z,0.00
2022-08-07T00:52:53.045Z,0.00
2022-08-07T00:53:23.554Z,0.00
2022-08-07T00:53:56.053Z,0.00
2022-08-07T00:54:28.019Z,0.00
2022-08-07T00:54:57.076Z,0.00
2022-08-07T00:56:02.860Z,0.00
2022-08-07T00:56:30.350Z,0.00
2022-08-07T00:56:59.450Z,0.00
2022-08-07T00:57:31.201Z,0.00
2022-08-07T00:58:02.538Z,0.00
2022-08-07T00:58:33.591Z,0.00
2022-08-07T00:59:04.543Z,0.00
2022-08-07T00:59:38.178Z,0.00
2022-08-07T01:02:58.082Z,0.00
2022-08-07T01:03:11.841Z,0.00
2022-08-07T01:03:56.617Z,0.00
2022-08-07T01:04:21.774Z,0.00
2022-08-07T01:04:48.709Z,0.00
2022-08-07T01:05:19.026Z,0.00
2022-08-07T01:05:51.677Z,0.00
2022-08-07T01:06:18.175Z,0.00
2022-08-07T01:06:48.664Z,0.00
2022-08-07T01:07:19.732Z,0.00
2022-08-07T01:07:55.296Z,0.00
2022-08-07T01:08:22.171Z,0.00
2022-08-07T01:08:58.539Z,0.00
2022-08-07T01:10:05.200Z,0.00
2022-08-07T01:10:27.671Z,0.00
2022-08-07T01:10:58.913Z,0.00
2022-08-07T01:12:23.647Z,0.00
2022-08-07T01:13:00.870Z,0.00
2022-08-07T01:13:35.225Z,0.00
2022-08-07T01:14:03.184Z,0.00
2022-08-07T01:14:37.033Z,0.00
2022-08-07T01:16:00.986Z,0.00
2022-08-07T01:16:38.869Z,0.00
2022-08-07T01:17:09.491Z,0.00
2022-08-07T01:17:40.531Z,0.00
2022-08-07T01:18:10.934Z,0.00
2022-08-07T01:18:43.180Z,0.00
2022-08-07T01:19:18.785Z,0.00
2022-08-07T01:19:44.375Z,0.00
2022-08-07T01:20:19.221Z,0.00
2022-08-07T01:20:57.432Z,0.00
2022-08-07T01:21:22.541Z,0.00
2022-08-07T01:21:49.270Z,0.00
2022-08-07T01:22:22.966Z,0.00
2022-08-07T01:23:00.749Z,0.00
2022-08-07T01:23:20.644Z,0.00
2022-08-07T01:23:51.802Z,0.00
2022-08-07T01:24:23.192Z,0.00
2022-08-07T01:24:57.730Z,0.00
2022-08-07T01:25:53.745Z,0.00
2022-08-07T01:26:31.021Z,0.00
2022-08-07T01:26:58.465Z,0.00
2022-08-07T01:27:57.302Z,0.00
2022-08-07T01:28:31.557Z,0.00
2022-08-07T01:29:06.361Z,0.00
2022-08-07T01:29:37.541Z,0.00
2022-08-07T01:30:51.211Z,0.00
2022-08-07T01:31:08.549Z,0.00
2022-08-07T01:31:42.538Z,0.00
2022-08-07T01:32:13.384Z,0.00
2022-08-07T01:32:40.158Z,0.00
2022-08-07T01:33:20.098Z,0.00
2022-08-07T01:33:53.782Z,0.00
2022-08-07T01:34:30.874Z,0.00
2022-08-07T01:34:43.355Z,0.00
2022-08-07T01:35:14.805Z,0.00
2022-08-07T01:35:53.459Z,0.00
2022-08-07T01:36:19.864Z,0.00
2022-08-07T01:36:52.717Z,0.00
2022-08-07T01:37:25.528Z,0.00
2022-08-07T01:37:50.634Z,0.00
2022-08-07T01:38:25.003Z,0.00
2022-08-07T01:38:51.354Z,0.00
2022-08-07T01:39:22.898Z,0.00
2022-08-07T01:39:53.568Z,0.00
2022-08-07T01:40:25.247Z,0.00
2022-08-07T01:40:55.093Z,0.00
2022-08-07T01:41:30.110Z,0.00
2022-08-07T01:42:07.714Z,0.00
2022-08-07T01:42:59.805Z,0.00
2022-08-07T01:43:39.996Z,0.00
2022-08-07T01:44:00.605Z,0.00
2022-08-07T01:44:34.838Z,0.00
2022-08-07T01:45:09.694Z,0.00
2022-08-07T01:45:37.166Z,0.00
2022-08-07T01:46:04.861Z,0.00
2022-08-07T01:46:35.755Z,0.00
2022-08-07T01:47:14.580Z,0.00
2022-08-07T01:48:46.651Z,0.00
2022-08-07T01:49:13.567Z,0.00
2022-08-07T01:49:42.053Z,0.00
2022-08-07T01:50:13.372Z,0.00
2022-08-07T01:50:43.933Z,0.00
2022-08-07T01:51:39.258Z,0.00
2022-08-07T01:52:19.409Z,0.00
2022-08-07T01:53:20.846Z,0.00
2022-08-07T01:54:12.414Z,0.00
2022-08-07T01:54:52.326Z,0.00
2022-08-07T01:55:24.112Z,0.00
2022-08-07T01:56:25.323Z,0.00
2022-08-07T01:56:56.185Z,0.00
2022-08-07T01:57:33.990Z,0.00
2022-08-07T01:58:05.792Z,0.00
2022-08-07T01:59:00.594Z,0.00
2022-08-07T01:59:31.591Z,0.00
2022-08-07T02:03:11.285Z,0.00
2022-08-07T02:03:49.088Z,0.00
2022-08-07T02:04:12.852Z,0.00
2022-08-07T02:04:56.351Z,0.00
2022-08-07T02:05:43.233Z,0.00
2022-08-07T02:06:52.122Z,0.00
2022-08-07T02:07:16.126Z,0.00
2022-08-07T02:07:50.386Z,0.00
2022-08-07T02:08:20.435Z,0.00
2022-08-07T02:08:54.202Z,0.00
2022-08-07T02:09:52.361Z,0.00
2022-08-07T02:10:23.383Z,0.00
2022-08-07T02:10:55.314Z,0.00
2022-08-07T02:11:31.073Z,0.00
2022-08-07T02:12:29.273Z,0.00
2022-08-07T02:13:00.731Z,0.00
2022-08-07T02:13:57.374Z,0.00
2022-08-07T02:14:40.422Z,0.00
2022-08-07T02:15:25.465Z,0.00
2022-08-07T02:15:31.944Z,0.00
2022-08-07T02:16:02.916Z,0.00
2022-08-07T02:16:34.334Z,0.00
2022-08-07T02:17:06.178Z,0.00
2022-08-07T02:17:36.277Z,0.00
2022-08-07T02:18:08.601Z,0.00
2022-08-07T02:18:46.899Z,0.00
2022-08-07T02:20:04.966Z,0.00
2022-08-07T02:20:17.464Z,0.00
2022-08-07T02:20:42.010Z,0.00
2022-08-07T02:21:16.035Z,0.00
2022-08-07T02:21:55.902Z,0.00
2022-08-07T02:22:18.534Z,0.00
2022-08-07T02:22:46.640Z,0.00
2022-08-07T02:23:23.766Z,0.00
2022-08-07T02:23:49.600Z,0.00
2022-08-07T02:24:21.870Z,0.00
2022-08-07T02:24:52.935Z,0.00
2022-08-07T02:25:32.144Z,0.00
2022-08-07T02:26:33.093Z,0.00
2022-08-07T02:26:54.101Z,0.00
2022-08-07T02:27:25.227Z,0.00
2022-08-07T02:27:56.092Z,0.00
2022-08-07T02:28:27.247Z,0.00
2022-08-07T02:29:01.508Z,0.00
2022-08-07T02:29:30.694Z,0.00
2022-08-07T02:30:22.376Z,0.00
2022-08-07T02:30:32.125Z,0.00
2022-08-07T02:31:10.152Z,0.00
2022-08-07T02:31:33.070Z,0.00
2022-08-07T02:32:04.751Z,0.00
2022-08-07T02:33:00.124Z,0.00
2022-08-07T02:34:01.638Z,0.00
2022-08-07T02:34:11.092Z,0.00
2022-08-07T02:34:48.674Z,0.00
2022-08-07T02:35:11.710Z,0.00
2022-08-07T02:36:28.644Z,0.00
2022-08-07T02:36:46.141Z,0.00
2022-08-07T02:37:15.246Z,0.00
2022-08-07T02:37:50.188Z,0.00
2022-08-07T02:38:16.360Z,0.00
2022-08-07T02:38:50.940Z,0.00
2022-08-07T02:39:43.204Z,0.00
2022-08-07T02:40:02.075Z,0.00
2022-08-07T02:40:31.127Z,0.00
2022-08-07T02:40:55.956Z,0.00
2022-08-07T02:41:37.225Z,0.00
2022-08-07T02:41:54.839Z,0.00
2022-08-07T02:42:24.338Z,0.00
2022-08-07T02:42:54.948Z,0.00
2022-08-07T02:43:25.867Z,0.00
2022-08-07T02:43:56.658Z,0.00
2022-08-07T02:44:34.908Z,0.00
2022-08-07T02:45:57.393Z,0.00
2022-08-07T02:46:37.307Z,0.00
2022-08-07T02:47:06.840Z,0.00
2022-08-07T02:47:45.577Z,0.00
2022-08-07T02:48:10.219Z,0.00
2022-08-07T02:48:38.463Z,0.00
2022-08-07T02:49:10.622Z,0.00
2022-08-07T02:49:58.313Z,0.00
2022-08-07T02:50:12.495Z,0.00
2022-08-07T02:50:57.390Z,0.00
2022-08-07T02:51:14.400Z,0.00
2022-08-07T02:52:13.638Z,0.00
2022-08-07T02:52:44.230Z,0.00
2022-08-07T02:53:15.644Z,0.00
2022-08-07T02:53:45.968Z,0.00
2022-08-07T02:54:17.870Z,0.00
2022-08-07T02:54:52.759Z,0.00
2022-08-07T02:55:27.810Z,0.00
2022-08-07T02:56:03.588Z,0.00
2022-08-07T02:56:24.711Z,0.00
2022-08-07T02:56:53.151Z,0.00
2022-08-07T02:57:28.584Z,0.00
2022-08-07T02:57:54.603Z,0.00
2022-08-07T02:58:33.386Z,0.00
2022-08-07T02:59:01.933Z,0.00
2022-08-07T02:59:33.807Z,0.00
2022-08-07T03:00:25.204Z,0.00
2022-08-07T03:00:33.598Z,0.00
2022-08-07T03:01:03.633Z,0.00
2022-08-07T03:01:35.481Z,0.00
2022-08-07T03:02:03.683Z,0.00
2022-08-07T03:02:33.518Z,0.00
2022-08-07T03:03:13.538Z,0.00
2022-08-07T03:03:49.030Z,0.00
2022-08-07T03:04:07.052Z,0.00
2022-08-07T03:04:42.930Z,0.00
2022-08-07T03:05:20.487Z,0.00
2022-08-07T03:05:56.916Z,0.00
2022-08-07T03:06:16.342Z,0.00
2022-08-07T03:06:44.677Z,0.00
2022-08-07T03:07:13.150Z,0.00
2022-08-07T03:08:48.710Z,0.00
2022-08-07T03:09:42.315Z,0.00
2022-08-07T03:10:23.995Z,0.00
2022-08-07T03:10:51.305Z,0.00
2022-08-07T03:11:25.290Z,0.00
2022-08-07T03:11:58.025Z,0.00
2022-08-07T03:12:30.978Z,0.00
2022-08-07T03:12:56.043Z,0.00
2022-08-07T03:13:28.052Z,0.00
2022-08-07T03:13:57.492Z,0.00
2022-08-07T03:14:32.910Z,0.00
2022-08-07T03:16:00.563Z,0.00
2022-08-07T03:16:32.226Z,0.00
2022-08-07T03:17:04.516Z,0.00
2022-08-07T03:17:36.315Z,0.00
2022-08-07T03:18:07.032Z,0.00
2022-08-07T03:18:36.407Z,0.00
2022-08-07T03:19:15.061Z,0.00
2022-08-07T03:19:36.882Z,0.00
2022-08-07T03:20:08.497Z,0.00
2022-08-07T03:20:44.283Z,0.00
2022-08-07T03:21:40.651Z,0.00
2022-08-07T03:22:19.226Z,0.00
2022-08-07T03:22:50.322Z,0.00
2022-08-07T03:23:19.093Z,0.00
2022-08-07T03:24:20.558Z,0.00
2022-08-07T03:25:02.603Z,0.00
2022-08-07T03:25:21.142Z,0.00
2022-08-07T03:25:58.487Z,0.00
2022-08-07T03:26:23.420Z,0.00
2022-08-07T03:26:59.194Z,0.00
2022-08-07T03:27:30.630Z,0.00
2022-08-07T03:28:38.182Z,0.00
2022-08-07T03:28:55.330Z,0.00
2022-08-07T03:29:27.690Z,0.00
2022-08-07T03:29:56.292Z,0.00
2022-08-07T03:30:30.100Z,0.00
2022-08-07T03:30:58.427Z,0.00
2022-08-07T03:31:42.814Z,0.00
2022-08-07T03:32:00.288Z,0.00
2022-08-07T03:32:34.910Z,0.00
2022-08-07T03:33:04.280Z,0.00
2022-08-07T03:33:40.072Z,0.00
2022-08-07T03:34:04.933Z,0.00
2022-08-07T03:34:39.188Z,0.00
2022-08-07T03:35:17.639Z,0.00
2022-08-07T03:35:49.880Z,0.00
2022-08-07T03:36:10.677Z,0.00
2022-08-07T03:36:39.100Z,0.00
2022-08-07T03:37:12.653Z,0.00
2022-08-07T03:37:46.495Z,0.00
2022-08-07T03:38:14.382Z,0.00
2022-08-07T03:38:52.219Z,0.00
2022-08-07T03:39:46.213Z,0.00
2022-08-07T03:40:18.717Z,0.00
2022-08-07T03:40:57.193Z,0.00
2022-08-07T03:41:19.046Z,0.00
2022-08-07T03:41:50.850Z,0.00
2022-08-07T03:42:20.626Z,0.00
2022-08-07T03:42:52.732Z,0.00
2022-08-07T03:43:32.112Z,0.00
2022-08-07T03:43:57.395Z,0.00
2022-08-07T03:44:34.443Z,0.00
2022-08-07T03:44:57.760Z,0.00
2022-08-07T03:46:31.391Z,0.00
2022-08-07T03:47:10.771Z,0.36
2022-08-07T03:47:30.461Z,0.85
2022-08-07T03:50:37.019Z,0.36
2022-08-07T03:51:47.836Z,1.71
2022-08-07T03:52:29.080Z,1.71
2022-08-07T03:52:40.965Z,1.71
2022-08-07T03:53:11.938Z,1.71
2022-08-07T03:54:33.034Z,2.08
2022-08-07T03:54:54.819Z,2.57
2022-08-07T03:55:58.142Z,2.08
2022-08-07T03:56:17.769Z,2.08
2022-08-07T03:57:03.715Z,2.57
2022-08-07T03:58:34.692Z,2.94
2022-08-07T03:59:25.871Z,3.43
2022-08-07T04:00:01.917Z,3.79
2022-08-07T04:00:29.357Z,3.79
2022-08-07T04:01:00.298Z,4.77
2022-08-07T04:01:27.978Z,4.28
2022-08-07T04:02:10.331Z,4.28
2022-08-07T04:02:30.415Z,4.28
2022-08-07T04:03:04.251Z,4.28
2022-08-07T04:03:49.511Z,4.77
2022-08-07T04:04:04.736Z,5.14
2022-08-07T04:04:33.742Z,5.63
2022-08-07T04:05:05.230Z,5.63
2022-08-07T04:05:40.783Z,5.63
2022-08-07T04:06:10.575Z,5.63
2022-08-07T04:07:16.695Z,5.63
2022-08-07T04:07:42.401Z,5.99
2022-08-07T04:08:11.405Z,6.48
2022-08-07T04:08:44.370Z,6.85
2022-08-07T04:09:44.915Z,6.48
2022-08-07T04:10:15.585Z,7.34
2022-08-07T04:10:54.774Z,7.70
2022-08-07T04:12:52.595Z,8.19
2022-08-07T04:13:21.852Z,9.05
2022-08-07T04:14:10.528Z,8.56
2022-08-07T04:14:53.529Z,9.54
2022-08-07T04:15:26.703Z,9.54
2022-08-07T04:15:55.415Z,9.54
2022-08-07T04:16:31.410Z,10.39
2022-08-07T04:16:59.084Z,9.05
2022-08-07T04:18:56.816Z,10.39
2022-08-07T04:19:04.297Z,11.25
2022-08-07T04:20:04.687Z,11.25
2022-08-07T04:20:35.430Z,12.11
2022-08-07T04:21:09.992Z,11.62
2022-08-07T04:21:36.763Z,12.48
2022-08-07T04:22:14.481Z,12.11
2022-08-07T04:22:40.713Z,12.48
2022-08-07T04:23:19.426Z,12.48
2022-08-07T04:23:43.891Z,12.11
2022-08-07T04:24:42.782Z,12.97
2022-08-07T04:25:14.217Z,13.33
2022-08-07T04:25:44.599Z,13.82
2022-08-07T04:26:16.828Z,13.33
2022-08-07T04:26:51.646Z,13.82
2022-08-07T04:27:25.133Z,14.31
2022-08-07T04:28:00.649Z,13.33
2022-08-07T04:28:22.631Z,14.31
2022-08-07T04:28:52.232Z,13.82
2022-08-07T04:29:21.615Z,14.31
2022-08-07T04:30:01.963Z,14.31
2022-08-07T04:30:43.904Z,15.17
2022-08-07T04:31:39.008Z,15.53
2022-08-07T04:33:19.157Z,16.39
2022-08-07T04:33:32.722Z,16.39
2022-08-07T04:34:01.108Z,16.39
2022-08-07T04:34:33.189Z,16.88
2022-08-07T04:35:03.955Z,16.88
2022-08-07T04:35:35.723Z,17.25
2022-08-07T04:36:06.486Z,18.11
2022-08-07T04:36:35.582Z,18.11
2022-08-07T04:37:08.087Z,17.73
2022-08-07T04:38:01.366Z,19.45
2022-08-07T04:38:56.984Z,19.08
2022-08-07T04:39:11.348Z,19.08
2022-08-07T04:39:47.837Z,19.94
2022-08-07T04:40:14.553Z,19.94
2022-08-07T04:40:52.635Z,19.45
2022-08-07T04:41:19.023Z,20.31
2022-08-07T04:41:50.438Z,19.45
2022-08-07T04:42:18.671Z,20.31
2022-08-07T04:42:52.482Z,19.94
2022-08-07T04:43:21.730Z,20.80
2022-08-07T04:44:21.758Z,21.65
2022-08-07T04:44:54.770Z,21.16
2022-08-07T04:45:58.057Z,21.65
2022-08-07T04:46:26.065Z,22.51
2022-08-07T04:47:04.269Z,22.02
2022-08-07T04:47:58.796Z,22.87
2022-08-07T04:48:28.668Z,23.36
2022-08-07T04:49:01.988Z,23.36
2022-08-07T04:49:34.574Z,24.22
2022-08-07T04:50:04.543Z,23.85
2022-08-07T04:50:36.599Z,23.85
2022-08-07T04:51:04.183Z,24.22
2022-08-07T04:51:37.602Z,25.07
2022-08-07T04:52:06.675Z,25.07
2022-08-07T04:52:36.428Z,25.56
2022-08-07T04:53:16.624Z,26.42
2022-08-07T04:54:10.795Z,26.42
2022-08-07T04:54:41.330Z,25.94
2022-08-07T04:55:15.593Z,26.42
2022-08-07T04:58:42.408Z,28.14
2022-08-07T05:00:14.631Z,27.65
2022-08-07T05:01:03.621Z,28.63
2022-08-07T05:01:29.936Z,28.63
2022-08-07T05:01:55.081Z,28.63
2022-08-07T05:02:26.038Z,28.99
2022-08-07T05:02:58.528Z,28.63
2022-08-07T05:04:00.036Z,29.48
2022-08-07T05:04:30.766Z,29.48
2022-08-07T05:05:01.163Z,29.48
2022-08-07T05:05:52.128Z,29.85
2022-08-07T05:06:19.247Z,29.85
2022-08-07T05:06:43.011Z,29.48
2022-08-07T05:07:09.665Z,29.85
2022-08-07T05:07:48.297Z,30.70
2022-08-07T05:08:07.526Z,30.70
2022-08-07T05:08:59.167Z,31.56
2022-08-07T05:09:10.390Z,31.56
2022-08-07T05:09:45.323Z,32.05
2022-08-07T05:10:13.078Z,31.56
2022-08-07T05:10:42.494Z,32.42
2022-08-07T05:11:19.568Z,33.39
2022-08-07T05:11:56.914Z,32.42
2022-08-07T05:12:15.466Z,33.76
2022-08-07T05:13:09.880Z,33.39
2022-08-07T05:15:23.802Z,34.25
2022-08-07T05:15:53.538Z,34.62
2022-08-07T05:16:23.115Z,35.11
2022-08-07T05:16:56.295Z,35.11
2022-08-07T05:17:51.466Z,34.62
2022-08-07T05:17:55.703Z,35.11
2022-08-07T05:18:29.823Z,34.25
2022-08-07T05:19:00.295Z,34.25
2022-08-07T05:19:43.997Z,34.62
2022-08-07T05:20:04.348Z,35.11
2022-08-07T05:20:32.070Z,35.48
2022-08-07T05:21:02.131Z,35.48
2022-08-07T05:22:00.316Z,35.97
2022-08-07T05:22:34.823Z,36.33
2022-08-07T05:23:06.126Z,35.97
2022-08-07T05:23:37.336Z,35.97
2022-08-07T05:24:10.346Z,35.48
2022-08-07T05:24:40.962Z,36.82
2022-08-07T05:25:25.727Z,36.82
2022-08-07T05:26:11.103Z,36.82
2022-08-07T05:26:42.813Z,37.19
2022-08-07T05:27:14.566Z,37.19
2022-08-07T05:28:26.604Z,37.68
2022-08-07T05:28:46.783Z,38.17
2022-08-07T05:29:20.407Z,37.68
2022-08-07T05:29:52.874Z,38.17
2022-08-07T05:30:30.132Z,38.17
2022-08-07T05:30:52.532Z,38.53
2022-08-07T05:31:23.096Z,37.68
2022-08-07T05:32:01.116Z,39.02
2022-08-07T05:32:24.399Z,38.53
2022-08-07T05:32:54.625Z,39.02
2022-08-07T05:33:35.374Z,39.02
2022-08-07T05:34:04.474Z,39.88
2022-08-07T05:34:32.272Z,40.24
2022-08-07T05:35:02.196Z,39.88
2022-08-07T05:35:33.462Z,40.24
2022-08-07T05:36:02.201Z,41.10
2022-08-07T05:36:35.384Z,41.96
2022-08-07T05:37:03.129Z,41.96
2022-08-07T05:37:37.720Z,41.59
2022-08-07T05:38:08.328Z,40.73
2022-08-07T05:39:00.982Z,41.59
2022-08-07T05:40:13.759Z,45.87
2022-08-07T05:40:50.477Z,46.73
2022-08-07T05:41:15.590Z,45.02
2022-08-07T05:42:00.560Z,41.10
2022-08-07T05:42:12.976Z,41.10
2022-08-07T05:42:54.748Z,41.10
2022-08-07T05:43:15.000Z,42.94
2022-08-07T05:44:07.686Z,41.96
2022-08-07T05:44:16.928Z,42.94
2022-08-07T05:45:14.836Z,43.31
2022-08-07T05:45:52.382Z,44.65
2022-08-07T05:46:22.660Z,45.87
2022-08-07T05:46:52.713Z,45.87
2022-08-07T05:48:01.459Z,44.16
2022-08-07T05:48:26.444Z,43.80
2022-08-07T05:48:59.181Z,43.80
2022-08-07T05:49:27.030Z,43.80
2022-08-07T05:49:57.993Z,44.16
2022-08-07T05:50:30.901Z,43.80
2022-08-07T05:51:02.071Z,45.02
2022-08-07T05:51:33.414Z,44.65
2022-08-07T05:52:03.230Z,45.02
2022-08-07T05:52:53.074Z,45.87
2022-08-07T05:53:04.374Z,45.51
2022-08-07T05:54:13.548Z,45.87
2022-08-07T05:54:53.371Z,46.73
2022-08-07T05:55:10.942Z,47.22
2022-08-07T05:56:01.894Z,47.22
2022-08-07T05:56:12.380Z,47.22
2022-08-07T05:56:42.757Z,48.56
2022-08-07T05:57:44.954Z,48.56
2022-08-07T05:58:13.849Z,48.07
2022-08-07T05:58:52.410Z,47.71
2022-08-07T05:59:16.022Z,48.07
2022-08-07T05:59:55.747Z,48.56
2022-08-07T06:00:22.510Z,48.56
2022-08-07T06:00:54.500Z,50.28
2022-08-07T06:01:23.718Z,51.99
2022-08-07T06:01:53.022Z,51.50
2022-08-07T06:02:28.851Z,51.50
2022-08-07T06:02:53.872Z,52.85
2022-08-07T06:03:23.867Z,53.34
2022-08-07T06:03:58.794Z,57.25
2022-08-07T06:04:30.237Z,71.07
2022-08-07T06:04:57.078Z,73.65
2022-08-07T06:05:28.401Z,76.70
2022-08-07T06:06:32.829Z,67.16
2022-08-07T06:07:04.605Z,67.16
2022-08-07T06:08:09.298Z,63.73
2022-08-07T06:08:42.397Z,60.19
2022-08-07T06:09:07.676Z,54.56
2022-08-07T06:10:03.721Z,55.41
2022-08-07T06:11:11.111Z,68.87
2022-08-07T06:11:42.199Z,68.02
2022-08-07T06:12:15.414Z,72.79
2022-08-07T06:12:43.332Z,87.59
2022-08-07T06:13:15.535Z,102.76
2022-08-07T06:14:13.032Z,121.85
2022-08-07T06:14:49.484Z,127.96
2022-08-07T06:15:22.699Z,125.27
2022-08-07T06:15:53.332Z,126.61
2022-08-07T06:16:19.286Z,131.88
2022-08-07T06:16:55.834Z,137.02
2022-08-07T06:17:32.085Z,137.51
2022-08-07T06:17:55.213Z,139.22
2022-08-07T06:18:24.563Z,150.47
2022-08-07T06:18:55.812Z,157.81
2022-08-07T06:19:47.886Z,174.81
2022-08-07T06:20:49.404Z,187.29
2022-08-07T06:22:15.859Z,179.95
2022-08-07T06:22:38.844Z,188.64
2022-08-07T06:23:25.216Z,201.24
2022-08-07T06:24:45.456Z,200.39
2022-08-07T06:25:10.063Z,199.04
2022-08-07T06:25:37.058Z,204.66
2022-08-07T06:26:09.047Z,208.58
2022-08-07T06:27:12.739Z,211.15
2022-08-07T06:28:14.872Z,211.15
2022-08-07T06:28:44.072Z,212.49
2022-08-07T06:29:15.308Z,213.84
2022-08-07T06:29:45.422Z,216.90
2022-08-07T06:30:35.167Z,219.83
2022-08-07T06:30:52.851Z,223.75
2022-08-07T06:31:18.637Z,226.81
2022-08-07T06:31:50.674Z,230.73
2022-08-07T06:32:20.812Z,233.29
2022-08-07T06:32:54.399Z,234.15
2022-08-07T06:33:24.929Z,234.64
2022-08-07T06:33:55.459Z,235.49
2022-08-07T06:34:25.623Z,238.07
2022-08-07T06:34:56.036Z,242.83
2022-08-07T06:35:38.873Z,246.75
2022-08-07T06:36:13.104Z,248.46
2022-08-07T06:36:35.340Z,251.15
2022-08-07T06:36:59.578Z,254.58
2022-08-07T06:37:44.282Z,258.00
2022-08-07T06:38:03.887Z,258.98
2022-08-07T06:38:35.164Z,259.84
2022-08-07T06:40:16.775Z,261.07
2022-08-07T06:40:36.834Z,262.78
2022-08-07T06:41:13.079Z,263.76
2022-08-07T06:42:00.716Z,264.98
2022-08-07T06:42:09.558Z,268.52
2022-08-07T06:42:40.303Z,272.32
2022-08-07T06:43:21.479Z,274.52
2022-08-07T06:43:46.074Z,275.86
2022-08-07T06:44:14.831Z,277.58
2022-08-07T06:44:45.008Z,278.93
2022-08-07T06:45:21.293Z,278.44
2022-08-07T06:45:49.428Z,278.44
2022-08-07T06:46:20.407Z,279.29
2022-08-07T06:46:53.823Z,278.93
2022-08-07T06:47:19.653Z,278.93
2022-08-07T06:47:58.688Z,278.44
2022-08-07T06:48:25.439Z,279.29
2022-08-07T06:48:54.842Z,281.49
2022-08-07T06:49:26.200Z,284.55
2022-08-07T06:49:58.463Z,288.83
2022-08-07T06:50:26.248Z,291.40
2022-08-07T06:50:56.147Z,296.66
2022-08-07T06:51:33.148Z,301.93
2022-08-07T06:51:59.608Z,307.06
2022-08-07T06:52:31.694Z,312.32
2022-08-07T06:53:01.046Z,314.40
2022-08-07T06:54:12.188Z,317.46
2022-08-07T06:56:15.932Z,323.09
2022-08-07T06:56:37.564Z,323.58
2022-08-07T06:57:09.013Z,327.00
2022-08-07T06:57:49.949Z,327.00
2022-08-07T06:58:11.091Z,330.92
2022-08-07T06:58:40.878Z,333.98
2022-08-07T07:01:58.260Z,339.61
2022-08-07T07:02:48.687Z,345.23
2022-08-07T07:03:39.722Z,348.78
2022-08-07T07:04:33.043Z,353.91
2022-08-07T07:04:56.090Z,356.49
2022-08-07T07:06:03.163Z,357.34
2022-08-07T07:06:27.239Z,356.98
2022-08-07T07:07:01.096Z,358.69
2022-08-07T07:08:00.388Z,359.54
2022-08-07T07:08:32.970Z,367.01
2022-08-07T07:09:01.867Z,370.43
2022-08-07T07:09:36.264Z,373.00
2022-08-07T07:10:37.074Z,376.06
2022-08-07T07:11:13.560Z,379.49
2022-08-07T07:12:41.817Z,386.95
2022-08-07T07:13:10.006Z,387.81
2022-08-07T07:13:55.765Z,386.95
2022-08-07T07:14:11.361Z,387.32
2022-08-07T07:14:43.909Z,386.95
2022-08-07T07:15:26.103Z,387.81
2022-08-07T07:15:51.633Z,389.03
2022-08-07T07:16:18.025Z,389.52
2022-08-07T07:16:51.096Z,391.72
2022-08-07T07:17:20.202Z,396.00
2022-08-07T07:17:50.566Z,396.86
2022-08-07T07:18:47.082Z,397.71
2022-08-07T07:19:55.755Z,396.00
2022-08-07T07:20:26.461Z,396.00
2022-08-07T07:20:56.705Z,395.64
2022-08-07T07:21:40.337Z,396.86
2022-08-07T07:22:40.040Z,394.66
2022-08-07T07:24:32.126Z,386.46
2022-08-07T07:26:31.583Z,383.03
2022-08-07T07:27:08.649Z,389.88
2022-08-07T07:28:01.921Z,391.23
2022-08-07T07:28:29.594Z,392.08
2022-08-07T07:29:22.910Z,396.86
2022-08-07T07:31:44.631Z,408.11
2022-08-07T07:32:17.909Z,425.11
2022-08-07T07:32:47.992Z,428.18
2022-08-07T07:33:21.166Z,432.45
2022-08-07T07:33:56.463Z,438.57
2022-08-07T07:34:20.423Z,440.28
2022-08-07T07:34:51.572Z,442.49
2022-08-07T07:35:22.430Z,446.77
2022-08-07T07:36:05.048Z,451.05
2022-08-07T07:36:32.345Z,452.89
2022-08-07T07:36:57.282Z,453.74
2022-08-07T07:37:52.620Z,459.37
2022-08-07T07:38:28.258Z,467.20
2022-08-07T07:38:59.487Z,472.34
2022-08-07T07:39:35.816Z,479.68
2022-08-07T07:40:01.843Z,483.59
2022-08-07T07:40:32.976Z,489.71
2022-08-07T07:41:04.152Z,493.62
2022-08-07T07:41:50.675Z,498.40
2022-08-07T07:42:39.549Z,502.31
2022-08-07T07:43:15.031Z,504.88
2022-08-07T07:44:13.808Z,506.23
2022-08-07T07:44:58.370Z,509.28
2022-08-07T07:45:24.593Z,510.99
2022-08-07T07:46:55.176Z,514.06
2022-08-07T07:47:23.622Z,518.82
2022-08-07T07:47:52.479Z,524.45
2022-08-07T07:48:24.129Z,527.02
2022-08-07T07:48:48.596Z,529.23
2022-08-07T07:50:33.946Z,531.30
2022-08-07T07:50:52.712Z,534.36
2022-08-07T07:51:28.173Z,538.77
2022-08-07T07:51:57.833Z,539.62
2022-08-07T07:52:32.151Z,547.82
2022-08-07T07:53:23.078Z,550.88
2022-08-07T07:53:59.078Z,555.65
2022-08-07T07:54:30.340Z,560.91
2022-08-07T07:55:00.524Z,561.77
2022-08-07T07:55:37.354Z,562.99
2022-08-07T07:56:02.789Z,568.62
2022-08-07T07:56:33.485Z,574.74
2022-08-07T07:57:06.573Z,583.42
2022-08-07T07:57:50.489Z,592.47
2022-08-07T07:58:09.141Z,597.73
2022-08-07T07:59:09.086Z,602.50
2022-08-07T07:59:52.619Z,603.85
2022-08-07T08:02:12.691Z,605.93
2022-08-07T08:03:01.240Z,608.99
2022-08-07T08:04:09.619Z,609.84
2022-08-07T08:04:19.203Z,607.28
2022-08-07T08:04:50.439Z,605.93
2022-08-07T08:05:24.554Z,602.50
2022-08-07T08:06:03.191Z,603.36
2022-08-07T08:06:27.256Z,604.21
2022-08-07T08:06:56.971Z,611.19
2022-08-07T08:07:36.018Z,612.53
2022-08-07T08:08:00.913Z,615.11
2022-08-07T08:08:35.528Z,618.53
2022-08-07T08:08:59.160Z,617.67
2022-08-07T08:09:29.855Z,617.67
2022-08-07T08:10:05.343Z,616.45
2022-08-07T08:10:37.729Z,618.16
2022-08-07T08:11:03.236Z,618.16
2022-08-07T08:12:00.136Z,621.22
2022-08-07T08:12:58.944Z,629.42
2022-08-07T08:13:10.502Z,636.39
2022-08-07T08:13:52.894Z,638.96
2022-08-07T08:14:09.446Z,640.31
2022-08-07T08:14:39.358Z,646.79
2022-08-07T08:15:12.168Z,645.94
2022-08-07T08:18:36.358Z,643.73
2022-08-07T08:18:46.313Z,665.87
2022-08-07T08:20:17.596Z,665.02
2022-08-07T08:20:50.631Z,697.07
2022-08-07T08:21:21.536Z,702.33
2022-08-07T08:22:32.623Z,703.55
2022-08-07T08:23:03.727Z,705.75
2022-08-07T08:23:28.109Z,708.82
2022-08-07T08:24:00.321Z,716.65
2022-08-07T08:24:36.626Z,718.36
2022-08-07T08:25:18.494Z,724.84
2022-08-07T08:25:42.957Z,726.55